Usti Nad Orlici, Czech Republic
Current Conditions -  °F | °C
As of 3:00 PM on Friday 28 Nov 2014 (Local Time) from LKPD Reporting Station
Overcast Overcast  
Wind Chill: 28°   Ceiling: 2200
Heat Index: 36°   Visibility: 6mi
Dew Point: 32°   Wind: 10mph
Humidity: 87%   Direction: 90°E
Pressure: 30.06"   Gusts: NA
Location:  49.97°N, 16.4°E
Report Text: LKPD 281300Z 09009KT 9999 OVC022 02/00 Q1018 NOSIG
Loading
Personal Weather Stations






























Interactive Weather Map New forecast layout! Learn more

10-Day Weather Forecast

Advertisements
Track Severe Weather on mobile